Garden, Michigan
Current Conditions -  °F | °C
As of 9:54 PM on Sunday 23 Nov 2014 (Local Time) from KISQ Reporting Station
Moderate Rain Moderate Rain  
Wind Chill: 38°   Ceiling: 300
Heat Index: 41°   Visibility: 0.25mi
Dew Point: 41°   Wind: 6mph
Humidity: 100%   Direction: 110°ESE
Pressure: 29.36"   Gusts: NA
Location:  45.77°N, 86.55°W
Report Text: KISQ 240254Z AUTO 11005KT 1/4SM RA OVC003 05/05 A2936 RMK AO2 P0007 T00520052
Loading
Personal Weather Stations






























Interactive Weather Map New forecast layout! Learn more

10-Day Weather Forecast

Advertisements
Track Severe Weather on mobile